Tupper Lake, NY

11:16 AM EDT on September 23, 2014 (GMT -0400)
Plattsburgh International | Change Station
CLOSE
Current Station
Airport
Location: Plattsburgh,
Elevation: 236 ft
Nearby Weather Stations

Elev 236 ft 44.65 °N, 73.47 °W | Updated 7 minutes ago

Overcast
Overcast
59 °F
Feels Like 59 °F
N
12
Wind Variable Wind from WNW
Gusts 23 mph

Today
High -- | Low -- °F
--% Chance of Precip.
Yesterday
High -- | Low -- °F
Precip. -- in
6:46 AM 6:53 PM
Waning Crescent, 0% visible
Pressure 30.23 in
Visibility 10.0 miles
Clouds Scattered Clouds 2700 ft
Dew Point 47 °F
Humidity 64%
Rainfall 0.00 in
Snow Depth Not available.
UV 4 out of 12
Pollen 2.40 out of 12
Air Quality Not available.
Flu Activity Not available.
SPECI KPBG 231509Z AUTO 29010G20KT 10SM SCT027 15/08 A3023 RMK AO2 T01500083

More Conditions Fewer Conditions

Pressure 30.23 in
Visibility 10.0 miles
Clouds Scattered Clouds 2700 ft
Dew Point 47 °F
Humidity 64%
Rainfall 0.00 in
Snow Depth Not available.
UV 4 out of 12
Pollen 2.40 out of 12
Air Quality Not available.
Flu Activity Not available.
SPECI KPBG 231509Z AUTO 29010G20KT 10SM SCT027 15/08 A3023 RMK AO2 T01500083

More Conditions Fewer Conditions

10-Day Weather Forecast

Almanac

Astronomy

Sep. 23, 2014 Rise Set
Actual Time 6:46 AM EDT 6:53 PM EDT
Civil Twilight 6:17 AM EDT 7:22 PM EDT
Nautical Twilight 5:43 AM EDT 7:56 PM EDT
Astronomical Twilight 5:08 AM EDT 8:30 PM EDT
Moon 6:07 AM EDT 6:30 PM EDT
Length of Visible Light 13h 05m
Length of Day
12h 07m
Tomorrow will be 3m 2s shorter.
Waning Crescent, 0% of the Moon is Illuminated
Today
Waning Crescent
Sep 24
New
Oct 1
First Quarter
Oct 8
Full
Oct 15
Last Quarter

Today's Extremes

State Highs State Lows

Community

WunderPhotos

Upload Photos

1,755,716 photos uploaded!

Nearby

Air Quality

  Air Quality AQ Index Pollutant
Tuesday Good
OZONE
Tuesday Good
PM2.5
Wednesday Good
PM2.5

Snow Depth

Station Depth Elevation
No new snow has been reported.

Earthquake Activity

City Distance Mag. Time & Date
No recent earthquake activity has been reported nearby.
Minimum magnitude displayed is 2.5.

Coastal Water Temperatures

Place Temperature
No Stations Reporting

Nearby Weather Stations